| time (UTC) | temp F | wind direction | speed MPH | gust MPH | rain 1hr in | rain 24hr in | rain mn in | humidity % | barometer mb |
| 20260503232007 | 77 | 1 | 2.0 | 6.0 | 0.00 | 0.00 | 0.00 | 45 | 1011.1 |
| 20260503231505 | 77 | 335 | 3.0 | 7.0 | 0.00 | 0.00 | 0.00 | 47 | 1011.1 |
| 20260503231005 | 76 | 300 | 3.0 | 7.0 | 0.00 | 0.00 | 0.00 | 47 | 1011.3 |
| 20260503230505 | 76 | 1 | 4.0 | 7.0 | 0.00 | 0.00 | 0.00 | 47 | 1011.3 |
| 20260503230006 | 77 | 284 | 3.0 | 7.0 | 0.00 | 0.00 | 0.00 | 49 | 1011.5 |
| 20260503225505 | 76 | 178 | 3.0 | 7.0 | 0.00 | 0.00 | 0.00 | 50 | 1011.5 |
| 20260503225005 | 76 | 1 | 1.0 | 7.0 | 0.00 | 0.00 | 0.00 | 50 | 1011.6 |
| 20260503224509 | 76 | 344 | 3.0 | 7.0 | 0.00 | 0.00 | 0.00 | 45 | 1011.7 |
| 20260503224005 | 77 | 354 | 3.0 | 8.0 | 0.00 | 0.00 | 0.00 | 42 | 1011.7 |
| 20260503223505 | 77 | 303 | 3.0 | 8.0 | 0.00 | 0.00 | 0.00 | 45 | 1011.8 |
| 20260503222505 | 77 | 335 | 3.0 | 5.0 | 0.00 | 0.00 | 0.00 | 49 | 1011.8 |
| 20260503221505 | 76 | 276 | 3.0 | 6.0 | 0.00 | 0.00 | 0.00 | 46 | 1012.0 |
| 20260503221006 | 75 | 1 | 2.0 | 6.0 | 0.00 | 0.00 | 0.00 | 49 | 1012.0 |
| 20260503220505 | 75 | 1 | 3.0 | 5.0 | 0.00 | 0.00 | 0.00 | 45 | 1012.0 |
| 20260503220010 | 75 | 264 | 2.0 | 6.0 | 0.00 | 0.00 | 0.00 | 47 | 1012.1 |
| 20260503215505 | 74 | 279 | 3.0 | 7.0 | 0.00 | 0.00 | 0.00 | 47 | 1012.2 |
| 20260503215005 | 74 | 229 | 3.0 | 8.0 | 0.00 | 0.00 | 0.00 | 47 | 1012.3 |
| 20260503214505 | 74 | 351 | 5.0 | 9.0 | 0.00 | 0.00 | 0.00 | 45 | 1012.2 |
| 20260503214006 | 75 | 356 | 4.0 | 9.0 | 0.00 | 0.00 | 0.00 | 46 | 1012.3 |
| 20260503213504 | 75 | 276 | 3.0 | 7.0 | 0.00 | 0.00 | 0.00 | 44 | 1012.5 |
| 20260503213007 | 75 | 342 | 3.0 | 7.0 | 0.00 | 0.00 | 0.00 | 46 | 1012.5 |
| 20260503212505 | 75 | 350 | 4.0 | 7.0 | 0.00 | 0.00 | 0.00 | 46 | 1012.4 |
| 20260503212006 | 75 | 272 | 4.0 | 7.0 | 0.00 | 0.00 | 0.00 | 44 | 1012.4 |
| 20260503211505 | 75 | 309 | 3.0 | 7.0 | 0.00 | 0.00 | 0.00 | 46 | 1012.4 |
| 20260503211006 | 75 | 284 | 2.0 | 6.0 | 0.00 | 0.00 | 0.00 | 47 | 1012.6 |
| 20260503205506 | 74 | 264 | 4.0 | 8.0 | 0.00 | 0.00 | 0.00 | 43 | 1012.7 |
| 20260503205005 | 74 | 241 | 3.0 | 8.0 | 0.00 | 0.00 | 0.00 | 48 | 1012.7 |
| 20260503204506 | 74 | 269 | 3.0 | 8.0 | 0.00 | 0.00 | 0.00 | 46 | 1012.8 |
| 20260503204006 | 73 | 299 | 3.0 | 7.0 | 0.00 | 0.00 | 0.00 | 43 | 1013.0 |
| 20260503203504 | 73 | 348 | 3.0 | 10.0 | 0.00 | 0.00 | 0.00 | 45 | 1013.1 |
| 20260503203006 | 72 | 257 | 6.0 | 10.0 | 0.00 | 0.00 | 0.00 | 45 | 1013.2 |
| 20260503202005 | 72 | 314 | 5.0 | 9.0 | 0.00 | 0.00 | 0.00 | 49 | 1013.4 |
| 20260503201505 | 72 | 13 | 5.0 | 9.0 | 0.00 | 0.00 | 0.00 | 47 | 1013.5 |
| 20260503201006 | 72 | 269 | 5.0 | 8.0 | 0.00 | 0.00 | 0.00 | 49 | 1013.4 |
| 20260503200505 | 72 | 314 | 4.0 | 9.0 | 0.00 | 0.00 | 0.00 | 51 | 1013.6 |
| 20260503195504 | 71 | 276 | 4.0 | 10.0 | 0.00 | 0.00 | 0.00 | 53 | 1013.7 |
| 20260503194505 | 71 | 254 | 5.0 | 8.0 | 0.00 | 0.00 | 0.00 | 56 | 1013.7 |
| 20260503194004 | 71 | 260 | 3.0 | 9.0 | 0.00 | 0.00 | 0.00 | 55 | 1013.8 |
| 20260503193504 | 71 | 248 | 4.0 | 7.0 | 0.00 | 0.00 | 0.00 | 56 | 1013.8 |
| 20260503193006 | 71 | 259 | 4.0 | 8.0 | 0.00 | 0.00 | 0.00 | 54 | 1013.8 |
| 20260503192506 | 71 | 285 | 3.0 | 8.0 | 0.00 | 0.00 | 0.00 | 59 | 1013.8 |
| 20260503191509 | 71 | 330 | 5.0 | 7.0 | 0.00 | 0.00 | 0.00 | 60 | 1013.8 |
| 20260503191004 | 71 | 245 | 3.0 | 9.0 | 0.00 | 0.00 | 0.00 | 58 | 1013.8 |
| 20260503190504 | 72 | 303 | 4.0 | 9.0 | 0.00 | 0.00 | 0.00 | 56 | 1013.8 |
| 20260503190006 | 72 | 296 | 2.0 | 7.0 | 0.00 | 0.00 | 0.00 | 56 | 1013.7 |
| 20260503185506 | 72 | 223 | 2.0 | 7.0 | 0.00 | 0.00 | 0.00 | 61 | 1013.7 |
| 20260503185007 | 72 | 290 | 3.0 | 7.0 | 0.00 | 0.00 | 0.00 | 58 | 1013.8 |
| 20260503184506 | 71 | 237 | 2.0 | 7.0 | 0.00 | 0.00 | 0.00 | 62 | 1013.8 |
| 20260503184005 | 71 | 124 | 2.0 | 9.0 | 0.00 | 0.00 | 0.00 | 60 | 1013.9 |
| 20260503183505 | 71 | 331 | 2.0 | 9.0 | 0.00 | 0.00 | 0.00 | 62 | 1013.9 |
| 20260503183007 | 71 | 269 | 3.0 | 7.0 | 0.00 | 0.00 | 0.00 | 61 | 1013.9 |
| 20260503182505 | 71 | 89 | 3.0 | 7.0 | 0.00 | 0.00 | 0.00 | 62 | 1013.9 |
| 20260503182006 | 70 | 122 | 3.0 | 6.0 | 0.00 | 0.00 | 0.00 | 61 | 1014.1 |
| 20260503181505 | 70 | 152 | 3.0 | 6.0 | 0.00 | 0.00 | 0.00 | 65 | 1014.1 |
| 20260503181005 | 69 | 149 | 2.0 | 6.0 | 0.00 | 0.00 | 0.00 | 65 | 1014.1 |
| 20260503180505 | 69 | 135 | 3.0 | 5.0 | 0.00 | 0.00 | 0.00 | 67 | 1014.2 |
| 20260503180007 | 68 | 223 | 2.0 | 7.0 | 0.00 | 0.00 | 0.00 | 68 | 1014.3 |
| 20260503175504 | 69 | 110 | 3.0 | 7.0 | 0.00 | 0.00 | 0.00 | 64 | 1014.3 |
| 20260503175004 | 69 | 178 | 2.0 | 5.0 | 0.00 | 0.00 | 0.00 | 65 | 1014.4 |
| 20260503174505 | 69 | 193 | 2.0 | 5.0 | 0.00 | 0.00 | 0.00 | 64 | 1014.4 |
| 20260503174006 | 69 | 295 | 1.0 | 4.0 | 0.00 | 0.00 | 0.00 | 65 | 1014.4 |
| 20260503173505 | 68 | 223 | 1.0 | 6.0 | 0.00 | 0.00 | 0.00 | 59 | 1014.4 |
| 20260503173006 | 69 | 199 | 1.0 | 5.0 | 0.00 | 0.00 | 0.00 | 63 | 1014.4 |
| 20260503172505 | 68 | 46 | 1.0 | 3.0 | 0.00 | 0.00 | 0.00 | 56 | 1014.5 |
| 20260503172005 | 68 | 324 | 2.0 | 3.0 | 0.00 | 0.00 | 0.00 | 59 | 1014.5 |
| 20260503171504 | 67 | 286 | 2.0 | 3.0 | 0.00 | 0.00 | 0.00 | 57 | 1014.5 |
| 20260503170505 | 67 | 20 | 1.0 | 4.0 | 0.00 | 0.00 | 0.00 | 59 | 1014.6 |
| 20260503151005 | 54 | 20 | 0.0 | 1.0 | 0.00 | 0.00 | 0.00 | 89 | 1015.1 |
| 20260503150505 | 54 | 290 | 0.0 | 1.0 | 0.00 | 0.00 | 0.00 | 91 | 1015.2 |
| 20260503131006 | 48 | 89 | 0.0 | 2.0 | 0.00 | 0.01 | 0.00 | 93 | 1014.8 |
| 20260503130504 | 48 | 327 | 2.0 | 3.0 | 0.00 | 0.01 | 0.00 | 94 | 1014.7 |
| 20260503110459 | 50 | 340 | 1.0 | 2.0 | 0.00 | 0.01 | 0.00 | 92 | 1014.7 |
| 20260503090502 | 51 | 331 | 1.0 | 1.0 | 0.00 | 0.01 | 0.00 | 91 | 1014.6 |
| 20260503081504 | 52 | 269 | 1.0 | 2.0 | 0.00 | 0.01 | 0.00 | 90 | 1014.6 |
| 20260503081004 | 52 | 296 | 1.0 | 2.0 | 0.00 | 0.01 | 0.00 | 90 | 1014.7 |
| 20260503080501 | 52 | 314 | 1.0 | 2.0 | 0.00 | 0.01 | 0.00 | 90 | 1014.7 |
| 20260503072504 | 53 | 347 | 1.0 | 2.0 | 0.00 | 0.01 | 0.00 | 89 | 1014.5 |
| 20260503072004 | 53 | 340 | 1.0 | 2.0 | 0.00 | 0.01 | 0.00 | 89 | 1014.5 |
| 20260503071504 | 53 | 1 | 0.0 | 2.0 | 0.00 | 0.01 | 0.00 | 88 | 1014.6 |
| 20260503071005 | 53 | 314 | 1.0 | 2.0 | 0.00 | 0.01 | 0.00 | 88 | 1014.7 |
| 20260503070504 | 53 | 1 | 1.0 | 2.0 | 0.00 | 0.01 | 0.00 | 89 | 1014.7 |
| 20260503054505 | 54 | 1 | 0.0 | 2.0 | 0.00 | 0.01 | 0.01 | 86 | 1014.3 |
| 20260503054005 | 55 | 1 | 0.0 | 2.0 | 0.00 | 0.01 | 0.01 | 85 | 1014.3 |
| 20260503053505 | 55 | 314 | 0.0 | 1.0 | 0.00 | 0.01 | 0.01 | 85 | 1014.4 |
| 20260503053006 | 55 | 314 | 0.0 | 1.0 | 0.00 | 0.01 | 0.01 | 85 | 1014.4 |
| 20260503052506 | 55 | 314 | 0.0 | 1.0 | 0.00 | 0.01 | 0.01 | 84 | 1014.5 |
| 20260503051505 | 55 | 1 | 0.0 | 2.0 | 0.00 | 0.01 | 0.01 | 84 | 1014.5 |
| 20260503051005 | 56 | 269 | 1.0 | 2.0 | 0.00 | 0.01 | 0.01 | 84 | 1014.6 |
| 20260503050505 | 56 | 331 | 1.0 | 1.0 | 0.00 | 0.01 | 0.01 | 84 | 1014.5 |
| 20260503045506 | 56 | 46 | 1.0 | 2.0 | 0.00 | 0.01 | 0.01 | 83 | 1014.5 |
| 20260503045005 | 56 | 1 | 1.0 | 2.0 | 0.00 | 0.01 | 0.01 | 83 | 1014.5 |
| 20260503044505 | 57 | 28 | 1.0 | 2.0 | 0.00 | 0.01 | 0.01 | 82 | 1014.5 |
| 20260503044005 | 57 | 296 | 0.0 | 1.0 | 0.00 | 0.01 | 0.01 | 82 | 1014.4 |
| 20260503043504 | 57 | 1 | 0.0 | 1.0 | 0.00 | 0.01 | 0.01 | 82 | 1014.5 |
| 20260503043006 | 57 | 178 | 0.0 | 1.0 | 0.00 | 0.01 | 0.01 | 81 | 1014.3 |
| 20260503042505 | 58 | 331 | 0.0 | 1.0 | 0.00 | 0.01 | 0.01 | 81 | 1014.3 |
| 20260503042005 | 58 | 1 | 0.0 | 1.0 | 0.00 | 0.01 | 0.01 | 81 | 1014.3 |
| 20260503041506 | 58 | 1 | 0.0 | 2.0 | 0.00 | 0.01 | 0.01 | 80 | 1014.2 |
| 20260503041005 | 58 | 340 | 1.0 | 2.0 | 0.00 | 0.01 | 0.01 | 80 | 1014.2 |
| 20260503040505 | 59 | 331 | 1.0 | 2.0 | 0.00 | 0.01 | 0.01 | 78 | 1014.1 |
| 20260503040006 | 59 | 1 | 1.0 | 1.0 | 0.00 | 0.01 | 0.01 | 78 | 1014.1 |
| 20260503035506 | 60 | 1 | 0.0 | 2.0 | 0.00 | 0.01 | 0.01 | 77 | 1014.1 |
| 20260503034505 | 60 | 46 | 0.0 | 2.0 | 0.00 | 0.01 | 0.01 | 75 | 1014.0 |
| 20260503034005 | 61 | 340 | 1.0 | 2.0 | 0.00 | 0.01 | 0.01 | 74 | 1013.9 |
| 20260503033506 | 61 | 46 | 0.0 | 1.0 | 0.00 | 0.01 | 0.01 | 74 | 1013.8 |
| 20260503033006 | 62 | 46 | 0.0 | 1.0 | 0.00 | 0.01 | 0.01 | 73 | 1013.7 |
| 20260503032505 | 62 | 1 | 0.0 | 1.0 | 0.00 | 0.01 | 0.01 | 72 | 1013.7 |
| 20260503032005 | 63 | 1 | 0.0 | 1.0 | 0.00 | 0.01 | 0.01 | 70 | 1013.7 |
| 20260503031505 | 63 | 46 | 0.0 | 2.0 | 0.00 | 0.01 | 0.01 | 69 | 1013.8 |
| 20260503031006 | 64 | 28 | 0.0 | 2.0 | 0.00 | 0.01 | 0.01 | 68 | 1013.7 |
| 20260503030505 | 64 | 269 | 0.0 | 2.0 | 0.00 | 0.01 | 0.01 | 67 | 1013.7 |
| 20260503030006 | 65 | 1 | 1.0 | 2.0 | 0.00 | 0.01 | 0.01 | 66 | 1013.8 |
| 20260503025506 | 65 | 108 | 0.0 | 1.0 | 0.00 | 0.01 | 0.01 | 65 | 1013.6 |
| 20260503025004 | 66 | 314 | 0.0 | 1.0 | 0.00 | 0.01 | 0.01 | 64 | 1013.7 |
| 20260503024505 | 66 | 223 | 1.0 | 2.0 | 0.00 | 0.01 | 0.01 | 62 | 1013.7 |
| 20260503024006 | 67 | 314 | 1.0 | 3.0 | 0.00 | 0.01 | 0.01 | 60 | 1013.6 |
| 20260503023005 | 69 | 108 | 1.0 | 2.0 | 0.00 | 0.01 | 0.01 | 60 | 1013.7 |
| 20260503022505 | 69 | 124 | 1.0 | 2.0 | 0.00 | 0.01 | 0.01 | 58 | 1013.6 |
| 20260503022005 | 69 | 1 | 0.0 | 2.0 | 0.00 | 0.01 | 0.01 | 60 | 1013.6 |
| 20260503021505 | 69 | 1 | 0.0 | 2.0 | 0.00 | 0.01 | 0.01 | 59 | 1013.6 |
| 20260503021005 | 69 | 303 | 1.0 | 2.0 | 0.00 | 0.01 | 0.01 | 59 | 1013.7 |
| 20260503020504 | 69 | 269 | 1.0 | 2.0 | 0.00 | 0.01 | 0.01 | 60 | 1013.7 |
| 20260503020007 | 69 | 206 | 1.0 | 3.0 | 0.00 | 0.01 | 0.01 | 59 | 1013.7 |
| 20260503015505 | 69 | 135 | 1.0 | 2.0 | 0.00 | 0.01 | 0.01 | 59 | 1013.8 |
| 20260503015005 | 69 | 286 | 1.0 | 4.0 | 0.00 | 0.01 | 0.01 | 59 | 1013.9 |
| 20260503014504 | 69 | 283 | 2.0 | 4.0 | 0.00 | 0.01 | 0.01 | 59 | 1013.9 |
| 20260503014005 | 69 | 145 | 2.0 | 3.0 | 0.00 | 0.01 | 0.01 | 58 | 1013.9 |
| 20260503013504 | 69 | 117 | 1.0 | 4.0 | 0.00 | 0.01 | 0.01 | 59 | 1013.9 |
| 20260503013005 | 69 | 117 | 1.0 | 4.0 | 0.00 | 0.01 | 0.01 | 59 | 1013.9 |
| 20260503012506 | 70 | 89 | 2.0 | 4.0 | 0.00 | 0.01 | 0.01 | 58 | 1014.0 |
| 20260503012005 | 70 | 283 | 2.0 | 5.0 | 0.00 | 0.01 | 0.01 | 57 | 1014.1 |
| 20260503011506 | 70 | 121 | 3.0 | 5.0 | 0.00 | 0.01 | 0.01 | 56 | 1014.1 |
| 20260503011006 | 71 | 131 | 2.0 | 4.0 | 0.00 | 0.01 | 0.01 | 56 | 1014.1 |
| 20260503010504 | 71 | 300 | 1.0 | 4.0 | 0.00 | 0.01 | 0.01 | 58 | 1014.1 |
| 20260503005503 | 71 | 131 | 2.0 | 5.0 | 0.00 | 0.01 | 0.01 | 59 | 1014.2 |
| 20260503005005 | 70 | 46 | 2.0 | 6.0 | 0.00 | 0.01 | 0.01 | 58 | 1014.2 |
| 20260503004505 | 71 | 303 | 3.0 | 6.0 | 0.00 | 0.01 | 0.01 | 57 | 1014.3 |
| 20260503004005 | 71 | 138 | 2.0 | 5.0 | 0.00 | 0.01 | 0.01 | 58 | 1014.3 |
| 20260503003504 | 71 | 63 | 2.0 | 4.0 | 0.00 | 0.01 | 0.01 | 57 | 1014.3 |
| 20260503003005 | 72 | 296 | 2.0 | 4.0 | 0.00 | 0.01 | 0.01 | 57 | 1014.3 |
| 20260503002504 | 72 | 269 | 2.0 | 4.0 | 0.00 | 0.01 | 0.01 | 59 | 1014.3 |
| 20260503002005 | 72 | 283 | 1.0 | 5.0 | 0.00 | 0.01 | 0.01 | 61 | 1014.3 |
| 20260503001504 | 72 | 186 | 2.0 | 5.0 | 0.00 | 0.01 | 0.01 | 58 | 1014.4 |
| 20260503001004 | 72 | 187 | 2.0 | 5.0 | 0.00 | 0.01 | 0.01 | 57 | 1014.4 |
| 20260503000504 | 72 | 237 | 3.0 | 5.0 | 0.00 | 0.01 | 0.01 | 57 | 1014.5 |
| 20260503000008 | 72 | 197 | 2.0 | 4.0 | 0.00 | 0.01 | 0.01 | 58 | 1014.4 |
| 20260502235504 | 73 | 241 | 2.0 | 6.0 | 0.00 | 0.01 | 0.01 | 58 | 1014.5 |
| 20260502235005 | 72 | 178 | 1.0 | 6.0 | 0.00 | 0.01 | 0.01 | 58 | 1014.4 |
| 20260502234505 | 73 | 216 | 3.0 | 7.0 | 0.00 | 0.01 | 0.01 | 59 | 1014.5 |
| 20260502234004 | 73 | 76 | 3.0 | 7.0 | 0.00 | 0.01 | 0.01 | 57 | 1014.6 |
| 20260502233505 | 73 | 1 | 2.0 | 4.0 | 0.00 | 0.01 | 0.01 | 55 | 1014.7 |
| 20260502233006 | 74 | 135 | 1.0 | 6.0 | 0.00 | 0.01 | 0.01 | 55 | 1014.7 |
| 20260502232504 | 74 | 223 | 2.0 | 7.0 | 0.00 | 0.01 | 0.01 | 51 | 1014.8 |